createdAt,value
2022-08-05T00:00:18.434Z,3.00
2022-08-05T00:02:50.505Z,3.13
2022-08-05T00:05:27.251Z,2.83
2022-08-05T00:08:34.169Z,3.33
2022-08-05T00:11:00.569Z,2.88
2022-08-05T00:13:39.153Z,2.85
2022-08-05T00:16:11.100Z,2.90
2022-08-05T00:18:44.872Z,3.28
2022-08-05T00:21:12.098Z,2.80
2022-08-05T00:23:45.973Z,3.05
2022-08-05T00:26:24.597Z,3.30
2022-08-05T00:28:51.390Z,3.03
2022-08-05T00:31:53.370Z,3.08
2022-08-05T00:34:56.057Z,7.03
2022-08-05T00:37:10.662Z,4.40
2022-08-05T00:39:44.182Z,3.30
2022-08-05T00:42:33.827Z,3.00
2022-08-05T00:45:01.281Z,3.08
2022-08-05T00:47:31.611Z,2.97
2022-08-05T00:50:16.999Z,2.90
2022-08-05T00:52:45.509Z,2.67
2022-08-05T00:55:13.808Z,2.78
2022-08-05T00:57:58.179Z,2.72
2022-08-05T01:00:27.854Z,2.63
2022-08-05T01:02:54.922Z,2.40
2022-08-05T01:05:24.038Z,2.60
2022-08-05T01:08:29.892Z,3.05
2022-08-05T01:10:58.069Z,2.90
2022-08-05T01:13:57.983Z,2.80
2022-08-05T01:16:53.944Z,2.88
2022-08-05T01:19:56.596Z,3.00
2022-08-05T01:22:23.858Z,3.17
2022-08-05T01:24:53.178Z,3.05
2022-08-05T01:27:55.895Z,2.90
2022-08-05T01:30:33.601Z,2.78
2022-08-05T01:33:08.315Z,2.80
2022-08-05T01:35:50.678Z,2.75
2022-08-05T01:38:26.885Z,2.70
2022-08-05T01:40:59.358Z,2.80
2022-08-05T01:43:28.064Z,2.70
2022-08-05T01:45:57.255Z,2.70
2022-08-05T01:48:29.545Z,2.53
2022-08-05T01:50:58.042Z,2.70
2022-08-05T01:53:54.685Z,2.90
2022-08-05T01:58:10.383Z,2.60
2022-08-05T01:59:20.197Z,2.80
2022-08-05T02:01:49.631Z,3.17
2022-08-05T02:04:19.551Z,3.22
2022-08-05T02:06:46.513Z,2.80
2022-08-05T02:09:17.277Z,2.38
2022-08-05T02:12:01.675Z,2.60
2022-08-05T02:14:32.414Z,2.50
2022-08-05T02:17:29.902Z,2.78
2022-08-05T02:20:05.863Z,2.17
2022-08-05T02:22:59.659Z,2.35
2022-08-05T02:25:33.822Z,2.28
2022-08-05T02:28:28.291Z,2.20
2022-08-05T02:31:01.394Z,2.03
2022-08-05T02:33:36.133Z,1.70
2022-08-05T02:36:13.351Z,1.85
2022-08-05T02:38:53.140Z,1.90
2022-08-05T02:41:22.985Z,1.77
2022-08-05T02:44:02.883Z,1.95
2022-08-05T02:46:36.528Z,1.93
2022-08-05T02:49:22.004Z,1.80
2022-08-05T02:52:03.034Z,1.80
2022-08-05T02:54:37.251Z,1.70
2022-08-05T02:58:12.296Z,1.70
2022-08-05T03:00:01.266Z,1.93
2022-08-05T03:02:39.758Z,1.75
2022-08-05T03:05:12.742Z,2.00
2022-08-05T03:08:06.868Z,1.77
2022-08-05T03:10:31.091Z,1.77
2022-08-05T03:15:28.347Z,1.80
2022-08-05T03:17:57.815Z,2.08
2022-08-05T03:20:26.974Z,1.70
2022-08-05T03:22:58.111Z,1.90
2022-08-05T03:25:33.053Z,1.83
2022-08-05T03:28:18.737Z,1.70
2022-08-05T03:30:49.683Z,1.90
2022-08-05T03:33:20.244Z,1.83
2022-08-05T03:35:49.901Z,1.77
2022-08-05T03:38:32.943Z,1.50
2022-08-05T03:41:08.272Z,1.60
2022-08-05T03:44:08.789Z,1.40
2022-08-05T03:46:26.839Z,1.50
2022-08-05T03:48:57.203Z,1.48
2022-08-05T03:52:49.230Z,1.70
2022-08-05T03:55:52.749Z,1.33
2022-08-05T03:57:28.988Z,1.45
2022-08-05T03:59:58.338Z,1.95
2022-08-05T04:02:38.415Z,1.70
2022-08-05T04:05:09.684Z,1.43
2022-08-05T04:07:58.028Z,1.50
2022-08-05T04:10:33.315Z,1.80
2022-08-05T04:13:04.608Z,1.67
2022-08-05T04:15:36.154Z,1.63
2022-08-05T04:18:09.747Z,1.70
2022-08-05T04:20:41.335Z,1.60
2022-08-05T04:23:12.673Z,2.00
2022-08-05T04:26:00.224Z,2.05
2022-08-05T04:28:32.847Z,1.88
2022-08-05T04:31:01.253Z,1.40
2022-08-05T04:34:18.975Z,1.67
2022-08-05T04:36:44.731Z,1.52
2022-08-05T04:39:08.158Z,1.80
2022-08-05T04:41:38.651Z,1.85
2022-08-05T04:44:10.200Z,1.57
2022-08-05T04:46:40.170Z,1.50
2022-08-05T04:49:12.291Z,1.60
2022-08-05T04:51:43.079Z,1.50
2022-08-05T04:54:10.105Z,1.48
2022-08-05T04:56:40.978Z,1.70
2022-08-05T04:59:21.824Z,1.58
2022-08-05T05:02:07.079Z,1.60
2022-08-05T05:04:43.940Z,1.30
2022-08-05T05:07:15.933Z,1.58
2022-08-05T05:09:44.076Z,1.80
2022-08-05T05:12:11.695Z,1.48
2022-08-05T05:14:49.573Z,1.90
2022-08-05T05:17:24.285Z,1.90
2022-08-05T05:19:56.574Z,2.30
2022-08-05T05:22:26.507Z,2.00
2022-08-05T05:24:57.052Z,2.20
2022-08-05T05:27:44.331Z,2.10
2022-08-05T05:30:15.518Z,2.88
2022-08-05T05:33:00.972Z,2.65
2022-08-05T05:35:38.101Z,2.80
2022-08-05T05:38:09.063Z,2.80
2022-08-05T05:40:36.235Z,2.65
2022-08-05T05:43:03.041Z,2.63
2022-08-05T05:45:29.930Z,2.63
2022-08-05T05:48:06.409Z,2.53
2022-08-05T05:50:41.088Z,2.50
2022-08-05T05:53:21.328Z,2.70
2022-08-05T05:56:00.701Z,2.60
2022-08-05T05:58:31.681Z,2.70
2022-08-05T06:01:02.497Z,2.40
2022-08-05T06:04:00.924Z,2.50
2022-08-05T06:06:31.116Z,2.45
2022-08-05T06:08:58.344Z,2.50
2022-08-05T06:11:29.070Z,3.40
2022-08-05T06:14:03.109Z,3.60
2022-08-05T06:16:32.683Z,3.63
2022-08-05T06:19:07.492Z,4.30
2022-08-05T06:21:38.790Z,3.00
2022-08-05T06:24:11.207Z,2.97
2022-08-05T06:26:39.938Z,2.50
2022-08-05T06:29:42.838Z,3.20
2022-08-05T06:32:04.759Z,2.70
2022-08-05T06:34:42.383Z,2.97
2022-08-05T06:37:13.620Z,3.03
2022-08-05T06:39:41.282Z,2.30
2022-08-05T06:42:08.303Z,2.50
2022-08-05T06:44:37.194Z,2.90
2022-08-05T06:47:06.313Z,2.75
2022-08-05T06:50:01.730Z,2.63
2022-08-05T06:52:37.958Z,2.70
2022-08-05T06:55:09.798Z,2.40
2022-08-05T06:58:03.081Z,2.58
2022-08-05T07:00:26.900Z,2.40
2022-08-05T07:02:56.348Z,3.15
2022-08-05T07:05:36.890Z,2.87
2022-08-05T07:08:05.045Z,2.80
2022-08-05T07:10:32.687Z,3.08
2022-08-05T07:13:39.518Z,2.65
2022-08-05T07:17:55.912Z,2.80
2022-08-05T07:19:10.208Z,2.47
2022-08-05T07:22:00.216Z,2.75
2022-08-05T07:24:29.915Z,3.22
2022-08-05T07:26:58.832Z,2.80
2022-08-05T07:30:25.728Z,3.00
2022-08-05T07:32:15.686Z,2.77
2022-08-05T07:34:42.545Z,2.60
2022-08-05T07:37:11.647Z,3.08
2022-08-05T07:40:25.913Z,2.85
2022-08-05T07:42:33.530Z,3.00
2022-08-05T07:45:00.994Z,2.97
2022-08-05T07:47:27.528Z,2.60
2022-08-05T07:50:10.143Z,3.38
2022-08-05T07:52:41.145Z,3.20
2022-08-05T07:55:16.057Z,3.45
2022-08-05T07:58:02.844Z,2.63
2022-08-05T08:00:30.376Z,3.08
2022-08-05T08:03:13.753Z,3.60
2022-08-05T08:05:47.640Z,3.00
2022-08-05T08:08:20.234Z,3.10
2022-08-05T08:10:49.022Z,3.37
2022-08-05T08:13:21.891Z,2.90
2022-08-05T08:16:50.850Z,3.17
2022-08-05T08:18:50.685Z,3.03
2022-08-05T08:21:17.639Z,2.70
2022-08-05T08:24:01.409Z,3.00
2022-08-05T08:26:34.620Z,2.83
2022-08-05T08:29:29.442Z,3.70
2022-08-05T08:31:55.624Z,2.80
2022-08-05T08:34:30.187Z,2.90
2022-08-05T08:37:01.747Z,2.50
2022-08-05T08:39:31.666Z,3.13
2022-08-05T08:42:33.735Z,3.25
2022-08-05T08:45:18.390Z,2.80
2022-08-05T08:48:10.711Z,2.88
2022-08-05T08:51:03.666Z,3.40
2022-08-05T08:53:37.566Z,2.30
2022-08-05T08:56:07.467Z,3.05
2022-08-05T08:58:43.332Z,3.05
2022-08-05T09:01:15.855Z,2.85
2022-08-05T09:03:47.591Z,3.30
2022-08-05T09:06:20.014Z,3.10
2022-08-05T09:08:48.586Z,3.08
2022-08-05T09:11:17.402Z,3.10
2022-08-05T09:14:54.786Z,3.00
2022-08-05T09:16:54.267Z,2.90
2022-08-05T09:19:23.921Z,2.65
2022-08-05T09:22:22.719Z,2.85
2022-08-05T09:24:44.981Z,2.70
2022-08-05T09:28:04.933Z,3.08
2022-08-05T09:30:28.683Z,2.87
2022-08-05T09:33:01.850Z,3.15
2022-08-05T09:35:29.457Z,3.10
2022-08-05T09:38:12.237Z,2.78
2022-08-05T09:40:44.484Z,3.10
2022-08-05T09:43:41.104Z,3.20
2022-08-05T09:46:27.388Z,2.88
2022-08-05T09:49:06.971Z,3.38
2022-08-05T09:51:48.779Z,3.00
2022-08-05T09:54:21.429Z,3.10
2022-08-05T09:56:57.428Z,3.20
2022-08-05T09:59:24.547Z,3.28
2022-08-05T10:01:58.130Z,3.60
2022-08-05T10:04:35.967Z,3.45
2022-08-05T10:07:19.954Z,3.38
2022-08-05T10:10:14.681Z,3.27
2022-08-05T10:12:49.300Z,3.50
2022-08-05T10:15:28.546Z,3.60
2022-08-05T10:18:03.753Z,3.00
2022-08-05T10:20:32.579Z,3.22
2022-08-05T10:23:01.063Z,3.10
2022-08-05T10:25:28.211Z,3.72
2022-08-05T10:28:13.381Z,3.22
2022-08-05T10:32:52.277Z,3.47
2022-08-05T10:33:35.330Z,3.30
2022-08-05T10:36:04.607Z,3.60
2022-08-05T10:38:34.931Z,3.90
2022-08-05T10:41:23.678Z,3.40
2022-08-05T10:44:01.402Z,3.50
2022-08-05T10:47:26.487Z,3.95
2022-08-05T10:50:33.192Z,3.57
2022-08-05T10:53:00.227Z,3.67
2022-08-05T10:55:27.589Z,3.60
2022-08-05T10:58:09.436Z,3.28
2022-08-05T11:00:45.837Z,3.80
2022-08-05T11:03:23.652Z,3.27
2022-08-05T11:06:15.867Z,3.42
2022-08-05T11:09:32.336Z,3.30
2022-08-05T11:12:28.548Z,3.35
2022-08-05T11:15:20.989Z,3.55
2022-08-05T11:17:58.768Z,3.63
2022-08-05T11:20:41.656Z,3.42
2022-08-05T11:23:56.918Z,3.47
2022-08-05T11:26:32.233Z,3.38
2022-08-05T11:29:13.301Z,3.20
2022-08-05T11:31:57.639Z,3.37
2022-08-05T11:34:50.806Z,3.63
2022-08-05T11:38:29.890Z,4.25
2022-08-05T11:41:00.833Z,3.97
2022-08-05T11:44:04.375Z,3.75
2022-08-05T11:46:32.442Z,3.17
2022-08-05T11:49:01.452Z,3.78
2022-08-05T11:51:43.702Z,3.55
2022-08-05T11:54:32.686Z,3.50
2022-08-05T11:57:02.257Z,3.42
2022-08-05T11:59:49.440Z,3.50
2022-08-05T12:02:29.715Z,3.78
2022-08-05T12:04:59.856Z,3.67
2022-08-05T12:08:07.981Z,3.78
2022-08-05T12:10:19.759Z,4.00
2022-08-05T12:12:46.628Z,3.50
2022-08-05T12:15:35.798Z,3.97
2022-08-05T12:18:10.450Z,4.53
2022-08-05T12:20:38.961Z,3.80
2022-08-05T12:23:11.997Z,4.10
2022-08-05T12:25:56.750Z,3.77
2022-08-05T12:28:35.050Z,3.78
2022-08-05T12:31:04.507Z,4.15
2022-08-05T12:33:36.787Z,3.60
2022-08-05T12:36:09.701Z,3.88
2022-08-05T12:38:39.746Z,3.83
2022-08-05T12:41:13.932Z,3.78
2022-08-05T12:43:55.732Z,4.18
2022-08-05T12:46:29.276Z,3.70
2022-08-05T12:49:20.267Z,3.58
2022-08-05T12:52:14.112Z,3.43
2022-08-05T12:54:51.052Z,3.80
2022-08-05T12:57:19.665Z,4.00
2022-08-05T13:01:57.348Z,3.95
2022-08-05T13:02:43.825Z,3.80
2022-08-05T13:05:19.620Z,4.13
2022-08-05T13:08:00.381Z,3.95
2022-08-05T13:10:31.805Z,3.80
2022-08-05T13:12:58.824Z,3.75
2022-08-05T13:15:41.480Z,3.80
2022-08-05T13:18:19.489Z,3.97
2022-08-05T13:20:49.270Z,3.97
2022-08-05T13:23:18.316Z,4.32
2022-08-05T13:25:59.584Z,3.90
2022-08-05T13:28:28.493Z,3.47
2022-08-05T13:30:57.911Z,4.00
2022-08-05T13:34:20.954Z,4.10
2022-08-05T13:36:14.601Z,3.97
2022-08-05T13:38:43.822Z,3.72
2022-08-05T13:41:11.613Z,3.70
2022-08-05T13:43:43.414Z,3.97
2022-08-05T13:46:11.687Z,4.20
2022-08-05T13:48:57.499Z,4.28
2022-08-05T13:51:40.202Z,3.58
2022-08-05T13:54:12.077Z,3.90
2022-08-05T13:56:39.847Z,4.00
2022-08-05T13:59:20.297Z,4.10
2022-08-05T14:01:57.469Z,4.20
2022-08-05T14:04:49.981Z,4.00
2022-08-05T14:08:00.389Z,4.00
2022-08-05T14:10:28.748Z,3.83
2022-08-05T14:12:57.157Z,4.28
2022-08-05T14:16:04.846Z,4.20
2022-08-05T14:18:15.271Z,4.28
2022-08-05T14:20:49.105Z,4.50
2022-08-05T14:23:26.223Z,4.30
2022-08-05T14:25:58.751Z,4.45
2022-08-05T14:28:32.296Z,4.40
2022-08-05T14:31:03.435Z,4.05
2022-08-05T14:33:59.436Z,4.07
2022-08-05T14:36:27.392Z,4.47
2022-08-05T14:38:54.031Z,4.57
2022-08-05T14:41:21.125Z,4.50
2022-08-05T14:43:59.084Z,5.00
2022-08-05T14:46:35.168Z,4.30
2022-08-05T14:49:07.764Z,4.97
2022-08-05T14:51:37.532Z,4.93
2022-08-05T14:54:26.080Z,4.60
2022-08-05T14:56:54.677Z,4.78
2022-08-05T14:59:21.809Z,4.57
2022-08-05T15:01:51.355Z,4.07
2022-08-05T15:04:22.830Z,4.28
2022-08-05T15:06:52.138Z,5.20
2022-08-05T15:09:52.657Z,3.90
2022-08-05T15:12:16.586Z,4.57
2022-08-05T15:14:49.602Z,4.90
2022-08-05T15:17:44.660Z,4.47
2022-08-05T15:20:07.092Z,4.20
2022-08-05T15:22:36.744Z,4.22
2022-08-05T15:25:13.615Z,4.38
2022-08-05T15:27:42.693Z,3.80
2022-08-05T15:30:14.197Z,4.18
2022-08-05T15:32:47.822Z,4.68
2022-08-05T15:35:15.033Z,4.20
2022-08-05T15:38:32.716Z,4.43
2022-08-05T15:41:02.713Z,4.20
2022-08-05T15:43:20.273Z,4.57
2022-08-05T15:46:00.474Z,4.45
2022-08-05T15:48:31.151Z,4.13
2022-08-05T15:51:03.621Z,4.22
2022-08-05T15:53:38.491Z,4.73
2022-08-05T15:56:18.216Z,4.68
2022-08-05T15:58:46.364Z,4.82
2022-08-05T16:01:18.158Z,4.40
2022-08-05T16:03:50.625Z,4.45
2022-08-05T16:06:20.206Z,4.07
2022-08-05T16:08:53.458Z,4.10
2022-08-05T16:11:42.937Z,4.88
2022-08-05T16:14:10.105Z,4.25
2022-08-05T16:16:47.197Z,4.32
2022-08-05T16:19:19.185Z,4.57
2022-08-05T16:22:03.607Z,4.28
2022-08-05T16:24:41.177Z,4.63
2022-08-05T16:27:32.272Z,4.00
2022-08-05T16:30:23.073Z,4.40
2022-08-05T16:32:54.934Z,3.73
2022-08-05T16:35:24.882Z,3.83
2022-08-05T16:38:13.676Z,4.30
2022-08-05T16:40:52.316Z,3.78
2022-08-05T16:43:28.926Z,3.80
2022-08-05T16:46:03.478Z,4.53
2022-08-05T16:48:37.539Z,4.00
2022-08-05T16:51:09.469Z,4.07
2022-08-05T16:54:05.862Z,4.65
2022-08-05T16:56:29.592Z,4.38
2022-08-05T16:58:57.259Z,4.00
2022-08-05T17:01:24.303Z,3.67
2022-08-05T17:03:52.081Z,3.38
2022-08-05T17:06:19.756Z,3.53
2022-08-05T17:08:52.973Z,3.67
2022-08-05T17:11:25.477Z,3.50
2022-08-05T17:14:05.573Z,3.50
2022-08-05T17:16:37.718Z,3.72
2022-08-05T17:19:07.658Z,3.50
2022-08-05T17:21:37.240Z,3.70
2022-08-05T17:24:28.393Z,4.03
2022-08-05T17:27:03.350Z,3.90
2022-08-05T17:29:33.772Z,4.03
2022-08-05T17:32:08.337Z,3.70
2022-08-05T17:34:37.818Z,3.83
2022-08-05T17:37:27.237Z,3.77
2022-08-05T17:39:51.271Z,3.88
2022-08-05T17:42:26.997Z,3.70
2022-08-05T17:44:56.610Z,3.85
2022-08-05T17:47:23.649Z,3.97
2022-08-05T17:50:03.602Z,3.70
2022-08-05T17:52:35.166Z,3.70
2022-08-05T17:55:20.928Z,3.58
2022-08-05T17:57:50.688Z,3.92
2022-08-05T18:00:17.593Z,4.13
2022-08-05T18:02:49.988Z,3.50
2022-08-05T18:05:21.514Z,4.22
2022-08-05T18:07:48.416Z,3.83
2022-08-05T18:10:21.018Z,3.58
2022-08-05T18:12:51.399Z,3.60
2022-08-05T18:15:18.066Z,3.30
2022-08-05T18:18:01.211Z,3.20
2022-08-05T18:20:32.119Z,3.80
2022-08-05T18:23:11.449Z,3.85
2022-08-05T18:25:44.888Z,3.78
2022-08-05T18:28:17.758Z,3.50
2022-08-05T18:30:53.956Z,2.55
2022-08-05T18:33:24.337Z,2.90
2022-08-05T18:36:03.710Z,2.58
2022-08-05T18:38:36.716Z,2.70
2022-08-05T18:41:56.411Z,2.80
2022-08-05T18:43:56.499Z,2.88
2022-08-05T18:46:28.955Z,2.70
2022-08-05T18:49:19.827Z,2.45
2022-08-05T18:52:09.003Z,2.67
2022-08-05T18:54:41.239Z,2.50
2022-08-05T18:57:15.765Z,2.67
2022-08-05T19:00:02.545Z,2.70
2022-08-05T19:02:29.637Z,2.70
2022-08-05T19:05:02.847Z,3.05
2022-08-05T19:07:48.073Z,2.40
2022-08-05T19:10:28.229Z,2.72
2022-08-05T19:12:56.582Z,2.72
2022-08-05T19:15:57.236Z,2.88
2022-08-05T19:18:21.959Z,3.10
2022-08-05T19:20:53.739Z,2.53
2022-08-05T19:24:06.958Z,3.22
2022-08-05T19:26:11.174Z,2.60
2022-08-05T19:28:43.231Z,2.50
2022-08-05T19:31:17.692Z,2.40
2022-08-05T19:33:48.576Z,2.70
2022-08-05T19:36:26.756Z,2.55
2022-08-05T19:39:01.006Z,2.20
2022-08-05T19:42:05.478Z,2.45
2022-08-05T19:44:19.253Z,2.53
2022-08-05T19:46:46.126Z,2.60
2022-08-05T19:49:16.892Z,2.40
2022-08-05T19:52:05.598Z,2.83
2022-08-05T19:54:37.294Z,2.45
2022-08-05T19:57:09.310Z,2.80
2022-08-05T20:00:02.072Z,2.47
2022-08-05T20:02:25.954Z,2.45
2022-08-05T20:04:58.402Z,2.60
2022-08-05T20:07:46.538Z,2.55
2022-08-05T20:10:15.174Z,2.50
2022-08-05T20:12:46.358Z,2.70
2022-08-05T20:15:48.468Z,2.78
2022-08-05T20:18:32.895Z,2.53
2022-08-05T20:21:00.082Z,2.97
2022-08-05T20:23:40.033Z,2.60
2022-08-05T20:26:19.938Z,2.50
2022-08-05T20:28:48.654Z,2.92
2022-08-05T20:31:21.879Z,3.10
2022-08-05T20:33:55.614Z,2.53
2022-08-05T20:36:25.865Z,2.92
2022-08-05T20:38:54.390Z,2.83
2022-08-05T20:41:26.848Z,2.92
2022-08-05T20:43:59.988Z,3.50
2022-08-05T20:46:33.877Z,3.20
2022-08-05T20:49:00.400Z,3.10
2022-08-05T20:51:33.963Z,2.53
2022-08-05T20:54:03.257Z,3.05
2022-08-05T20:56:42.107Z,2.95
2022-08-05T20:59:18.925Z,3.00
2022-08-05T21:01:52.047Z,3.10
2022-08-05T21:04:21.140Z,3.27
2022-08-05T21:06:54.057Z,2.90
2022-08-05T21:09:20.809Z,2.70
2022-08-05T21:12:10.728Z,3.13
2022-08-05T21:14:35.344Z,3.60
2022-08-05T21:17:05.075Z,3.07
2022-08-05T21:19:47.555Z,3.60
2022-08-05T21:22:23.377Z,3.60
2022-08-05T21:24:54.871Z,3.65
2022-08-05T21:27:25.007Z,3.70
2022-08-05T21:29:52.442Z,3.70
2022-08-05T21:32:20.924Z,3.92
2022-08-05T21:35:06.669Z,3.75
2022-08-05T21:37:41.233Z,3.70
2022-08-05T21:40:13.124Z,3.40
2022-08-05T21:42:46.760Z,3.57
2022-08-05T21:45:24.669Z,2.83
2022-08-05T21:48:06.460Z,3.10
2022-08-05T21:50:34.828Z,2.95
2022-08-05T21:53:16.683Z,2.85
2022-08-05T21:56:05.752Z,3.10
2022-08-05T21:58:36.687Z,3.13
2022-08-05T22:01:11.136Z,2.95
2022-08-05T22:03:54.025Z,3.42
2022-08-05T22:06:35.537Z,3.33
2022-08-05T22:09:14.589Z,2.80
2022-08-05T22:11:42.733Z,2.78
2022-08-05T22:14:34.265Z,2.67
2022-08-05T22:17:08.394Z,2.20
2022-08-05T22:20:03.080Z,2.47
2022-08-05T22:22:28.144Z,2.90
2022-08-05T22:25:20.986Z,2.40
2022-08-05T22:28:08.439Z,2.65
2022-08-05T22:30:44.090Z,3.03
2022-08-05T22:33:57.849Z,3.00
2022-08-05T22:36:17.329Z,2.93
2022-08-05T22:38:48.070Z,2.80
2022-08-05T22:42:04.398Z,3.15
2022-08-05T22:44:06.900Z,3.13
2022-08-05T22:46:40.018Z,3.10
2022-08-05T22:49:12.033Z,3.53
2022-08-05T22:52:06.673Z,3.00
2022-08-05T22:54:35.450Z,3.35
2022-08-05T22:57:02.818Z,2.92
2022-08-05T22:59:46.405Z,3.00
2022-08-05T23:02:29.272Z,3.07
2022-08-05T23:04:57.966Z,2.90
2022-08-05T23:07:28.480Z,2.70
2022-08-05T23:10:01.957Z,3.05
2022-08-05T23:12:32.884Z,3.00
2022-08-05T23:15:03.348Z,2.70
2022-08-05T23:17:37.276Z,2.90
2022-08-05T23:20:20.105Z,2.50
2022-08-05T23:22:50.453Z,2.60
2022-08-05T23:25:50.870Z,2.28
2022-08-05T23:28:12.120Z,2.50
2022-08-05T23:30:43.581Z,2.40
2022-08-05T23:33:16.359Z,2.50
2022-08-05T23:35:56.244Z,2.47
2022-08-05T23:38:26.725Z,2.35
2022-08-05T23:40:55.725Z,2.50
2022-08-05T23:43:25.423Z,2.55
2022-08-05T23:46:19.900Z,2.78
2022-08-05T23:49:00.999Z,2.83
2022-08-05T23:51:53.663Z,2.65
2022-08-05T23:54:26.625Z,2.43
2022-08-05T23:57:04.172Z,2.35
